Time;durP1;ratioP1;P1;durP2;ratioP2;P2;SDS_P1;SDS_P2;PMS_P1;PMS_P2;Temp;Humidity;BMP_temperature;BMP_pressure;BME280_temperature;BME280_humidity;BME280_pressure;Samples;Min_cycle;Max_cycle;Signal;HPM_P1;HPM_P2
2023/04/05 00:01:27;;;;;;;5.00;3.65;;;;;;;;;;5055103;28;20127;-45
2023/04/05 00:03:53;;;;;;;3.95;3.50;;;;;;;;;;5062441;28;20082;-48
2023/04/05 00:06:21;;;;;;;8.40;3.80;;;;;;;;;;5056865;28;20041;-41
2023/04/05 00:08:49;;;;;;;4.18;3.28;;;;;;;;;;5055513;28;20106;-42
2023/04/05 00:11:17;;;;;;;6.72;3.88;;;;;;;;;;5045283;28;20045;-43
2023/04/05 00:13:42;;;;;;;6.30;3.03;;;;;;;;;;5040433;28;20041;-47
2023/04/05 00:16:08;;;;;;;7.20;3.90;;;;;;;;;;5042933;28;20378;-41
2023/04/05 00:18:33;;;;;;;5.85;3.08;;;;;;;;;;5038867;28;20033;-41
2023/04/05 00:20:59;;;;;;;5.13;3.55;;;;;;;;;;5040257;28;20041;-41
2023/04/05 00:23:25;;;;;;;7.90;3.30;;;;;;;;;;5041046;28;20016;-45
2023/04/05 00:25:51;;;;;;;11.95;3.45;;;;;;;;;;5045626;28;20041;-41
2023/04/05 00:28:16;;;;;;;6.45;3.42;;;;;;;;;;5038960;28;20040;-43
2023/04/05 00:30:41;;;;;;;4.75;3.40;;;;;;;;;;5040819;28;20482;-45
2023/04/05 00:33:07;;;;;;;4.60;3.50;;;;;;;;;;5039923;28;20028;-47
2023/04/05 00:35:32;;;;;;;6.07;3.90;;;;;;;;;;5042219;28;20064;-44
2023/04/05 00:37:58;;;;;;;6.38;3.22;;;;;;;;;;5038105;28;20432;-48
2023/04/05 00:40:24;;;;;;;5.63;3.83;;;;;;;;;;5041462;28;20041;-42
2023/04/05 00:42:49;;;;;;;5.32;3.80;;;;;;;;;;5038205;28;20064;-47
2023/04/05 00:45:15;;;;;;;7.40;3.90;;;;;;;;;;5043517;28;20033;-45
2023/04/05 00:47:41;;;;;;;4.28;3.60;;;;;;;;;;5040516;28;21059;-49
2023/04/05 00:50:08;;;;;;;8.82;3.53;;;;;;;;;;5040996;28;20033;-48
2023/04/05 00:52:36;;;;;;;4.40;3.53;;;;;;;;;;5040975;28;20036;-49
2023/04/05 00:55:04;;;;;;;4.65;3.20;;;;;;;;;;5042165;28;20037;-45
2023/04/05 00:57:30;;;;;;;4.82;3.60;;;;;;;;;;5041176;28;20063;-43
2023/04/05 00:59:58;;;;;;;6.03;3.20;;;;;;;;;;5043148;28;20139;-42
2023/04/05 01:02:32;;;;;;;4.88;3.58;;;;;;;;;;5042913;28;20060;-41
2023/04/05 01:05:01;;;;;;;7.57;3.60;;;;;;;;;;5041749;28;20409;-42
2023/04/05 01:07:46;;;;;;;5.32;3.75;;;;;;;;;;5059258;28;20044;-42
2023/04/05 01:10:15;;;;;;;6.57;3.97;;;;;;;;;;5059124;28;20033;-43
2023/04/05 01:12:40;;;;;;;6.43;3.55;;;;;;;;;;5059943;28;20029;-42
2023/04/05 01:15:06;;;;;;;8.57;3.55;;;;;;;;;;5056268;28;20043;-40
2023/04/05 01:17:38;;;;;;;5.88;3.78;;;;;;;;;;5042240;28;20059;-43
2023/04/05 01:20:09;;;;;;;4.30;3.10;;;;;;;;;;5038326;28;20037;-42
2023/04/05 01:23:01;;;;;;;4.65;3.65;;;;;;;;;;5043863;28;20473;-43
2023/04/05 01:25:58;;;;;;;7.63;3.50;;;;;;;;;;5045032;28;20037;-41
2023/04/05 01:28:42;;;;;;;5.78;4.13;;;;;;;;;;5041928;28;20086;-41
2023/04/05 01:31:35;;;;;;;4.90;2.80;;;;;;;;;;5056164;28;20483;-41
2023/04/05 01:34:12;;;;;;;6.32;3.10;;;;;;;;;;5060119;28;20094;-41
2023/04/05 01:37:04;;;;;;;7.00;2.95;;;;;;;;;;5053467;28;20064;-41
2023/04/05 01:39:30;;;;;;;5.50;3.13;;;;;;;;;;5047856;28;20037;-41
2023/04/05 01:42:00;;;;;;;6.38;3.53;;;;;;;;;;5051243;28;20087;-41
2023/04/05 01:44:25;;;;;;;10.95;3.05;;;;;;;;;;5047524;28;20047;-43
2023/04/05 01:46:51;;;;;;;2.92;2.63;;;;;;;;;;5045839;28;20045;-41
2023/04/05 01:49:17;;;;;;;7.10;2.95;;;;;;;;;;5051571;28;20032;-41
2023/04/05 01:51:43;;;;;;;2.85;2.55;;;;;;;;;;5049471;28;20045;-43
2023/04/05 01:54:08;;;;;;;3.10;2.58;;;;;;;;;;5048999;28;20410;-41
2023/04/05 01:56:34;;;;;;;4.93;2.60;;;;;;;;;;5050070;28;20164;-41
2023/04/05 01:58:59;;;;;;;3.00;2.80;;;;;;;;;;5048063;28;20055;-42
2023/04/05 02:01:25;;;;;;;3.38;2.75;;;;;;;;;;5055841;28;20052;-41
2023/04/05 02:03:50;;;;;;;5.63;2.63;;;;;;;;;;5054004;28;20112;-39
2023/04/05 02:06:16;;;;;;;3.00;2.67;;;;;;;;;;5049581;28;20498;-42
2023/04/05 02:08:41;;;;;;;4.78;2.90;;;;;;;;;;5055955;28;20035;-41
2023/04/05 02:11:07;;;;;;;7.50;4.05;;;;;;;;;;5055545;28;20039;-41
2023/04/05 02:13:32;;;;;;;4.90;3.30;;;;;;;;;;5069483;28;20041;-42
2023/04/05 02:15:57;;;;;;;3.42;3.13;;;;;;;;;;5051745;28;20048;-41
2023/04/05 02:18:30;;;;;;;3.88;2.95;;;;;;;;;;5046150;28;20334;-43
2023/04/05 02:21:03;;;;;;;5.03;3.10;;;;;;;;;;5043871;28;20037;-41
2023/04/05 02:23:30;;;;;;;5.28;3.33;;;;;;;;;;5041076;28;20032;-41
2023/04/05 02:25:56;;;;;;;3.95;3.10;;;;;;;;;;5046118;28;20057;-42
2023/04/05 02:28:21;;;;;;;5.43;3.03;;;;;;;;;;5048174;28;20436;-42
2023/04/05 02:30:47;;;;;;;5.55;3.58;;;;;;;;;;5048112;28;20036;-43
2023/04/05 02:33:12;;;;;;;3.58;3.28;;;;;;;;;;5041772;28;20037;-42
2023/04/05 02:35:37;;;;;;;8.32;2.67;;;;;;;;;;5046688;28;20047;-41
2023/04/05 02:38:03;;;;;;;3.08;2.30;;;;;;;;;;5047873;28;20029;-43
2023/04/05 02:40:30;;;;;;;4.10;2.20;;;;;;;;;;5041715;28;20045;-41
2023/04/05 02:42:56;;;;;;;4.47;2.20;;;;;;;;;;5048890;28;20115;-41
2023/04/05 02:45:21;;;;;;;3.80;2.55;;;;;;;;;;5049894;28;20458;-43
2023/04/05 02:47:47;;;;;;;2.92;2.30;;;;;;;;;;5059636;28;20025;-41
2023/04/05 02:50:12;;;;;;;4.18;2.92;;;;;;;;;;5055399;28;20060;-41
2023/04/05 02:52:38;;;;;;;6.35;2.83;;;;;;;;;;5044434;28;20108;-41
2023/04/05 02:55:05;;;;;;;4.15;2.63;;;;;;;;;;5037948;28;20068;-43
2023/04/05 02:57:30;;;;;;;3.00;2.70;;;;;;;;;;5045750;28;20037;-41
2023/04/05 02:59:56;;;;;;;9.57;3.05;;;;;;;;;;5049636;28;20032;-41
2023/04/05 03:02:21;;;;;;;3.03;2.70;;;;;;;;;;5041626;28;20464;-41
2023/04/05 03:04:47;;;;;;;4.28;2.50;;;;;;;;;;5041615;28;20029;-41
2023/04/05 03:07:17;;;;;;;2.83;2.55;;;;;;;;;;5042862;28;20075;-42
2023/04/05 03:09:45;;;;;;;3.28;2.65;;;;;;;;;;5047582;28;20099;-41
2023/04/05 03:12:11;;;;;;;5.13;2.60;;;;;;;;;;5043319;28;20056;-41
2023/04/05 03:14:37;;;;;;;8.45;2.83;;;;;;;;;;5043021;28;20045;-41
2023/04/05 03:17:02;;;;;;;3.30;2.55;;;;;;;;;;5041581;28;20041;-45
2023/04/05 03:19:28;;;;;;;6.47;2.38;;;;;;;;;;5054438;28;20032;-41
2023/04/05 03:21:53;;;;;;;6.70;2.25;;;;;;;;;;5039360;28;20045;-44
2023/04/05 03:24:19;;;;;;;4.20;2.45;;;;;;;;;;5043577;28;20060;-41
2023/04/05 03:26:45;;;;;;;2.53;2.17;;;;;;;;;;5041525;28;20452;-41
2023/04/05 03:29:11;;;;;;;7.72;2.30;;;;;;;;;;5042626;28;20025;-41
2023/04/05 03:31:37;;;;;;;2.92;2.50;;;;;;;;;;5037862;28;20045;-42
2023/04/05 03:34:02;;;;;;;2.65;2.45;;;;;;;;;;5040409;28;20064;-40
2023/04/05 03:36:29;;;;;;;3.10;2.40;;;;;;;;;;5054907;28;20052;-41
2023/04/05 03:38:57;;;;;;;3.08;2.72;;;;;;;;;;5063111;28;20028;-41
2023/04/05 03:41:23;;;;;;;3.17;2.03;;;;;;;;;;5050754;28;20082;-42
2023/04/05 03:43:48;;;;;;;2.42;2.22;;;;;;;;;;5048727;28;20028;-41
2023/04/05 03:46:14;;;;;;;3.78;2.45;;;;;;;;;;5052332;28;20052;-43
2023/04/05 03:48:39;;;;;;;4.68;2.50;;;;;;;;;;5062042;28;20486;-42
2023/04/05 03:51:05;;;;;;;4.18;2.53;;;;;;;;;;5061502;28;20062;-41
2023/04/05 03:53:31;;;;;;;3.47;2.25;;;;;;;;;;5065714;28;20039;-41
2023/04/05 03:55:57;;;;;;;6.07;2.40;;;;;;;;;;5051429;28;20055;-41
2023/04/05 03:58:24;;;;;;;3.08;2.30;;;;;;;;;;5046214;28;20029;-44
2023/04/05 04:00:51;;;;;;;3.00;2.30;;;;;;;;;;5041632;28;20128;-41
2023/04/05 04:03:17;;;;;;;2.75;2.45;;;;;;;;;;5047925;28;20032;-41
2023/04/05 04:05:42;;;;;;;3.42;2.40;;;;;;;;;;5047063;28;20401;-41
2023/04/05 04:08:08;;;;;;;2.88;2.25;;;;;;;;;;5044678;28;20036;-41
2023/04/05 04:10:34;;;;;;;4.53;2.28;;;;;;;;;;5046761;28;20037;-41
2023/04/05 04:12:59;;;;;;;2.67;2.35;;;;;;;;;;5040550;28;20914;-41
2023/04/05 04:15:25;;;;;;;2.20;2.10;;;;;;;;;;5042512;28;20424;-41
2023/04/05 04:17:50;;;;;;;2.25;2.10;;;;;;;;;;5045063;28;20021;-45
2023/04/05 04:20:16;;;;;;;4.07;2.30;;;;;;;;;;5044392;28;20029;-41
2023/04/05 04:22:41;;;;;;;2.25;2.05;;;;;;;;;;5046159;28;20112;-42
2023/04/05 04:25:11;;;;;;;3.28;2.63;;;;;;;;;;5045909;28;20032;-42
2023/04/05 04:27:41;;;;;;;2.03;1.92;;;;;;;;;;5045652;28;20033;-41
2023/04/05 04:30:09;;;;;;;2.22;2.00;;;;;;;;;;5043090;28;20025;-41
2023/04/05 04:33:08;;;;;;;3.45;2.25;;;;;;;;;;5046776;28;20025;-41
2023/04/05 04:35:28;;;;;;;3.72;2.78;;;;;;;;;;5043476;28;20099;-41
2023/04/05 04:38:01;;;;;;;4.22;2.53;;;;;;;;;;5044956;28;20116;-41
2023/04/05 04:40:40;;;;;;;2.35;2.15;;;;;;;;;;5044545;28;20656;-41
2023/04/05 04:43:16;;;;;;;2.20;1.95;;;;;;;;;;5043026;28;20032;-41
2023/04/05 04:45:47;;;;;;;4.90;2.30;;;;;;;;;;5045551;28;20033;-44
2023/04/05 04:48:13;;;;;;;5.38;2.03;;;;;;;;;;5040239;28;20108;-41
2023/04/05 04:50:38;;;;;;;3.63;2.08;;;;;;;;;;5040115;28;20044;-41
2023/04/05 04:53:04;;;;;;;3.88;2.65;;;;;;;;;;5048356;28;20048;-40
2023/04/05 04:55:32;;;;;;;3.55;2.10;;;;;;;;;;5048917;28;20047;-41
2023/04/05 04:57:58;;;;;;;2.35;2.13;;;;;;;;;;5062051;28;20540;-41
2023/04/05 05:00:23;;;;;;;2.30;2.00;;;;;;;;;;5058985;28;20135;-42
2023/04/05 05:02:51;;;;;;;3.13;2.72;;;;;;;;;;5056694;28;20431;-41
2023/04/05 05:05:17;;;;;;;3.33;2.30;;;;;;;;;;5052899;28;20476;-41
2023/04/05 05:07:42;;;;;;;3.88;2.10;;;;;;;;;;5058693;28;20028;-41
2023/04/05 05:10:09;;;;;;;3.47;2.08;;;;;;;;;;5057650;28;20043;-41
2023/04/05 05:12:36;;;;;;;3.95;2.42;;;;;;;;;;5055170;28;20070;-41
2023/04/05 05:15:01;;;;;;;2.40;1.95;;;;;;;;;;5053603;28;20087;-41
2023/04/05 05:17:27;;;;;;;2.58;2.10;;;;;;;;;;5060556;28;20683;-41
2023/04/05 05:19:52;;;;;;;8.30;2.20;;;;;;;;;;5058649;28;20040;-43
2023/04/05 05:22:17;;;;;;;3.30;2.03;;;;;;;;;;5063246;28;20033;-41
2023/04/05 05:24:44;;;;;;;2.97;2.15;;;;;;;;;;5055175;28;20120;-42
2023/04/05 05:27:09;;;;;;;4.05;2.75;;;;;;;;;;5056770;28;20476;-41
2023/04/05 05:29:35;;;;;;;6.85;2.65;;;;;;;;;;5058360;28;20039;-41
2023/04/05 05:32:00;;;;;;;4.95;2.53;;;;;;;;;;5054092;28;20132;-41
2023/04/05 05:34:26;;;;;;;4.20;2.63;;;;;;;;;;5057985;28;20035;-43
2023/04/05 05:36:53;;;;;;;5.38;2.60;;;;;;;;;;5059158;28;20468;-44
2023/04/05 05:39:19;;;;;;;8.05;2.88;;;;;;;;;;5057730;28;20040;-41
2023/04/05 05:41:45;;;;;;;4.45;2.47;;;;;;;;;;5061261;28;20040;-42
2023/04/05 05:44:10;;;;;;;3.78;2.55;;;;;;;;;;5063285;28;20035;-44
2023/04/05 05:46:35;;;;;;;3.85;2.88;;;;;;;;;;5042780;28;20107;-41
2023/04/05 05:49:01;;;;;;;5.63;2.70;;;;;;;;;;5038952;28;20044;-41
2023/04/05 05:51:26;;;;;;;6.15;2.65;;;;;;;;;;5053457;28;20040;-43
2023/04/05 05:53:52;;;;;;;7.32;3.05;;;;;;;;;;5061072;28;20032;-41
2023/04/05 05:56:17;;;;;;;11.80;3.58;;;;;;;;;;5047599;28;20041;-42
2023/04/05 05:58:42;;;;;;;5.70;2.80;;;;;;;;;;5036493;28;20021;-43
2023/04/05 06:01:10;;;;;;;6.88;2.60;;;;;;;;;;5040699;28;20044;-41
2023/04/05 06:03:36;;;;;;;7.10;3.03;;;;;;;;;;5040443;28;20155;-40
2023/04/05 06:06:04;;;;;;;6.18;2.90;;;;;;;;;;5042251;28;20072;-40
2023/04/05 06:08:30;;;;;;;4.93;2.85;;;;;;;;;;5046688;28;20017;-44
2023/04/05 06:10:56;;;;;;;3.50;3.20;;;;;;;;;;5055781;28;20079;-41
2023/04/05 06:13:21;;;;;;;3.60;3.22;;;;;;;;;;5058440;28;20195;-41
2023/04/05 06:15:47;;;;;;;5.43;3.88;;;;;;;;;;5062948;28;20123;-41
2023/04/05 06:18:13;;;;;;;7.93;3.97;;;;;;;;;;5060530;28;20052;-41
2023/04/05 06:20:39;;;;;;;8.25;3.67;;;;;;;;;;5059296;28;20037;-41
2023/04/05 06:23:05;;;;;;;3.75;3.45;;;;;;;;;;5045094;28;20033;-41
2023/04/05 06:25:30;;;;;;;5.03;3.38;;;;;;;;;;5048136;28;20087;-42
2023/04/05 06:27:56;;;;;;;4.38;3.30;;;;;;;;;;5045905;28;20033;-41
2023/04/05 06:30:21;;;;;;;3.78;3.28;;;;;;;;;;5048933;28;20052;-41
2023/04/05 06:32:49;;;;;;;4.75;2.72;;;;;;;;;;5049323;28;20044;-43
2023/04/05 06:35:15;;;;;;;9.60;3.10;;;;;;;;;;5047878;28;20035;-40
2023/04/05 06:37:40;;;;;;;4.05;2.60;;;;;;;;;;5038547;28;20033;-41
2023/04/05 06:40:06;;;;;;;9.35;2.80;;;;;;;;;;5041624;28;20032;-40
2023/04/05 06:42:32;;;;;;;2.83;2.55;;;;;;;;;;5040658;28;20025;-41
2023/04/05 06:44:57;;;;;;;2.40;2.20;;;;;;;;;;5045523;28;20033;-41
2023/04/05 06:47:22;;;;;;;3.42;2.47;;;;;;;;;;5041757;28;20082;-41
2023/04/05 06:49:48;;;;;;;5.20;2.67;;;;;;;;;;5042108;28;20033;-41
2023/04/05 06:52:13;;;;;;;4.32;2.20;;;;;;;;;;5046577;28;20044;-41
2023/04/05 06:54:38;;;;;;;3.30;1.70;;;;;;;;;;5047831;28;20154;-41
2023/04/05 06:57:04;;;;;;;1.90;1.80;;;;;;;;;;5045930;28;20512;-41
2023/04/05 06:59:29;;;;;;;2.53;2.10;;;;;;;;;;5050247;28;20029;-43
2023/04/05 07:01:55;;;;;;;5.25;2.47;;;;;;;;;;5049791;28;20412;-41
2023/04/05 07:04:21;;;;;;;2.53;2.30;;;;;;;;;;5048621;28;20031;-41
2023/04/05 07:06:46;;;;;;;4.15;2.30;;;;;;;;;;5041999;28;20033;-41
2023/04/05 07:09:12;;;;;;;4.03;2.15;;;;;;;;;;5047806;28;20025;-40
2023/04/05 07:11:38;;;;;;;3.70;2.35;;;;;;;;;;5048382;28;20037;-41
2023/04/05 07:14:04;;;;;;;5.82;2.60;;;;;;;;;;5050799;28;20040;-41
2023/04/05 07:16:31;;;;;;;3.53;2.90;;;;;;;;;;5057014;28;20049;-41
2023/04/05 07:18:56;;;;;;;4.80;2.65;;;;;;;;;;5066901;28;20082;-41
2023/04/05 07:21:22;;;;;;;8.40;3.03;;;;;;;;;;5050840;28;20045;-41
2023/04/05 07:23:48;;;;;;;3.00;2.50;;;;;;;;;;5038305;28;20041;-43
2023/04/05 07:26:13;;;;;;;9.25;2.83;;;;;;;;;;5049102;28;20047;-41
2023/04/05 07:28:39;;;;;;;6.60;2.80;;;;;;;;;;5064784;28;20111;-42
2023/04/05 07:31:05;;;;;;;5.75;2.70;;;;;;;;;;5050873;28;20567;-41
2023/04/05 07:33:31;;;;;;;3.95;2.58;;;;;;;;;;5041190;28;20029;-41
2023/04/05 07:35:57;;;;;;;3.05;2.28;;;;;;;;;;5043113;28;20040;-45
2023/04/05 07:38:23;;;;;;;12.30;2.72;;;;;;;;;;5044653;28;20017;-41
2023/04/05 07:40:48;;;;;;;2.38;2.17;;;;;;;;;;5049945;28;20033;-43
2023/04/05 07:43:15;;;;;;;7.00;2.33;;;;;;;;;;5062339;28;20107;-40
2023/04/05 07:45:40;;;;;;;7.13;2.33;;;;;;;;;;5063904;28;20440;-43
2023/04/05 07:48:06;;;;;;;5.43;2.88;;;;;;;;;;5058903;28;20039;-41
2023/04/05 07:50:33;;;;;;;6.85;2.42;;;;;;;;;;5063382;28;20493;-43
2023/04/05 07:52:59;;;;;;;3.58;2.50;;;;;;;;;;5062600;28;20140;-42
2023/04/05 07:55:26;;;;;;;3.13;2.63;;;;;;;;;;5057356;28;20520;-42
2023/04/05 07:57:52;;;;;;;4.40;2.08;;;;;;;;;;5057082;28;20027;-41
2023/04/05 08:00:18;;;;;;;2.60;2.40;;;;;;;;;;5059692;28;20103;-41
2023/04/05 08:02:43;;;;;;;2.47;2.28;;;;;;;;;;5045430;28;20048;-46
2023/04/05 08:05:09;;;;;;;3.50;2.63;;;;;;;;;;5047351;28;20033;-43
2023/04/05 08:07:34;;;;;;;5.32;2.65;;;;;;;;;;5046114;28;20021;-41
2023/04/05 08:10:00;;;;;;;3.72;2.60;;;;;;;;;;5046271;28;20423;-43
2023/04/05 08:12:26;;;;;;;3.50;2.55;;;;;;;;;;5045342;28;20049;-41
2023/04/05 08:14:51;;;;;;;2.90;2.67;;;;;;;;;;5046789;28;20432;-41
2023/04/05 08:17:17;;;;;;;3.85;2.70;;;;;;;;;;5059467;28;20081;-45
2023/04/05 08:19:42;;;;;;;3.88;2.67;;;;;;;;;;5056202;28;20028;-44
2023/04/05 08:22:07;;;;;;;2.88;2.50;;;;;;;;;;5063092;28;20166;-41
2023/04/05 08:24:33;;;;;;;7.88;2.75;;;;;;;;;;5065474;28;20029;-43
2023/04/05 08:26:58;;;;;;;7.90;3.75;;;;;;;;;;5042522;28;20059;-42
2023/04/05 08:29:24;;;;;;;5.93;2.70;;;;;;;;;;5043142;28;20037;-45
2023/04/05 08:31:49;;;;;;;2.92;2.60;;;;;;;;;;5042699;28;20094;-40
2023/04/05 08:34:15;;;;;;;3.63;2.65;;;;;;;;;;5045012;28;20032;-42
2023/04/05 08:36:40;;;;;;;3.95;2.63;;;;;;;;;;5044728;28;20037;-41
2023/04/05 08:39:05;;;;;;;6.28;2.67;;;;;;;;;;5045866;28;20024;-44
2023/04/05 08:41:45;;;;;;;2.88;2.40;;;;;;;;;;5042633;28;20451;-47
2023/04/05 08:44:12;;;;;;;5.40;2.50;;;;;;;;;;5043832;28;20488;-48
2023/04/05 08:46:38;;;;;;;5.18;2.70;;;;;;;;;;5043447;28;20048;-46
2023/04/05 08:49:07;;;;;;;3.58;2.85;;;;;;;;;;5045458;28;20033;-45
2023/04/05 08:51:35;;;;;;;5.57;2.85;;;;;;;;;;5045993;28;20033;-44
2023/04/05 08:54:00;;;;;;;8.52;2.65;;;;;;;;;;5045386;28;20126;-41
2023/04/05 08:56:33;;;;;;;6.65;2.90;;;;;;;;;;5042054;28;20045;-45
2023/04/05 08:59:11;;;;;;;2.53;2.33;;;;;;;;;;5045757;28;20040;-42
2023/04/05 09:01:41;;;;;;;5.18;2.75;;;;;;;;;;5044809;28;20037;-42
2023/04/05 09:04:17;;;;;;;3.50;2.53;;;;;;;;;;5044679;28;20025;-42
2023/04/05 09:06:43;;;;;;;6.47;2.95;;;;;;;;;;5042353;28;20041;-45
2023/04/05 09:09:10;;;;;;;3.88;2.42;;;;;;;;;;5039696;28;20028;-41
2023/04/05 09:11:37;;;;;;;3.53;2.40;;;;;;;;;;5045127;28;20509;-41
2023/04/05 09:14:03;;;;;;;2.53;2.30;;;;;;;;;;5046183;28;20060;-44
2023/04/05 09:16:34;;;;;;;4.15;2.33;;;;;;;;;;5045744;28;20375;-47
2023/04/05 09:18:59;;;;;;;4.78;2.58;;;;;;;;;;5042859;28;20032;-44
2023/04/05 09:21:28;;;;;;;5.50;2.45;;;;;;;;;;5042728;28;20033;-40
2023/04/05 09:23:54;;;;;;;3.17;2.42;;;;;;;;;;5045696;28;20421;-44
2023/04/05 09:26:23;;;;;;;2.40;2.20;;;;;;;;;;5045442;28;20406;-41
2023/04/05 09:28:49;;;;;;;5.03;2.55;;;;;;;;;;5044831;28;20029;-43
2023/04/05 09:31:34;;;;;;;5.53;2.38;;;;;;;;;;5044022;28;20129;-42
2023/04/05 09:34:04;;;;;;;8.98;2.50;;;;;;;;;;5042947;28;20474;-44
2023/04/05 09:36:32;;;;;;;5.78;2.45;;;;;;;;;;5046423;28;20513;-41
2023/04/05 09:39:08;;;;;;;9.57;2.58;;;;;;;;;;5046661;28;20025;-46
2023/04/05 09:41:34;;;;;;;4.65;2.72;;;;;;;;;;5042259;28;20092;-41
2023/04/05 09:44:00;;;;;;;5.35;4.07;;;;;;;;;;5040571;28;20029;-48
2023/04/05 09:46:38;;;;;;;7.65;2.33;;;;;;;;;;5043358;28;20098;-43
2023/04/05 09:49:05;;;;;;;3.47;2.35;;;;;;;;;;5046940;28;20452;-41
2023/04/05 09:51:35;;;;;;;6.80;2.60;;;;;;;;;;5048042;28;20072;-41
2023/04/05 09:54:04;;;;;;;3.83;2.38;;;;;;;;;;5051427;28;20150;-42
2023/04/05 09:56:32;;;;;;;4.13;2.85;;;;;;;;;;5043152;28;20060;-41
2023/04/05 09:59:01;;;;;;;3.10;2.35;;;;;;;;;;5044270;28;20109;-42
2023/04/05 10:01:30;;;;;;;2.80;2.55;;;;;;;;;;5047508;28;20032;-49
2023/04/05 10:03:56;;;;;;;5.10;2.60;;;;;;;;;;5046426;28;20135;-41
2023/04/05 10:06:22;;;;;;;6.20;1.90;;;;;;;;;;5048610;28;20052;-42
2023/04/05 10:08:48;;;;;;;2.28;2.08;;;;;;;;;;5048958;28;20896;-43
2023/04/05 10:11:17;;;;;;;3.88;2.38;;;;;;;;;;5052803;28;20175;-42
2023/04/05 10:13:44;;;;;;;3.17;2.28;;;;;;;;;;5065496;28;20041;-42
2023/04/05 10:16:15;;;;;;;3.72;2.15;;;;;;;;;;5065527;28;20036;-41
2023/04/05 10:18:48;;;;;;;5.35;2.17;;;;;;;;;;5067082;28;20361;-41
2023/04/05 10:21:19;;;;;;;2.53;2.25;;;;;;;;;;5062882;28;20044;-41
2023/04/05 10:23:47;;;;;;;2.45;2.20;;;;;;;;;;5062554;28;20096;-42
2023/04/05 10:26:21;;;;;;;3.35;2.40;;;;;;;;;;5054823;28;20055;-41
2023/04/05 10:28:55;;;;;;;2.20;2.00;;;;;;;;;;5061019;28;20047;-42
2023/04/05 10:31:59;;;;;;;2.22;2.00;;;;;;;;;;5062021;28;20040;-39
2023/04/05 10:34:28;;;;;;;3.97;2.33;;;;;;;;;;5046995;28;20504;-41
2023/04/05 10:37:00;;;;;;;4.00;2.20;;;;;;;;;;5045131;28;20406;-41
2023/04/05 10:39:28;;;;;;;2.85;2.38;;;;;;;;;;5045142;28;20033;-40
2023/04/05 10:42:06;;;;;;;3.53;2.80;;;;;;;;;;5044372;28;20045;-42
2023/04/05 10:44:34;;;;;;;3.97;2.72;;;;;;;;;;5045615;28;20106;-41
2023/04/05 10:47:02;;;;;;;3.28;2.78;;;;;;;;;;5045541;28;20052;-41
2023/04/05 10:49:44;;;;;;;4.95;2.72;;;;;;;;;;5046325;28;20116;-41
2023/04/05 10:52:10;;;;;;;4.05;2.42;;;;;;;;;;5042051;28;20044;-42
2023/04/05 10:54:36;;;;;;;3.22;2.60;;;;;;;;;;5046789;28;20405;-44
2023/04/05 10:57:07;;;;;;;3.60;2.60;;;;;;;;;;5046104;28;20044;-42
2023/04/05 10:59:33;;;;;;;2.60;2.40;;;;;;;;;;5045790;28;20163;-41
2023/04/05 11:02:00;;;;;;;2.92;2.60;;;;;;;;;;5045873;28;20145;-41
2023/04/05 11:04:26;;;;;;;4.63;2.65;;;;;;;;;;5045440;28;20039;-41
2023/04/05 11:07:13;;;;;;;4.18;3.05;;;;;;;;;;5044758;28;20040;-41
2023/04/05 11:10:00;;;;;;;2.80;2.60;;;;;;;;;;5052762;28;20444;-41
2023/04/05 11:12:48;;;;;;;2.88;2.67;;;;;;;;;;5062333;28;20126;-41
2023/04/05 11:15:29;;;;;;;4.63;2.40;;;;;;;;;;5058372;28;20110;-42
2023/04/05 11:18:15;;;;;;;5.57;2.35;;;;;;;;;;5046426;28;20034;-42
2023/04/05 11:20:47;;;;;;;4.68;2.45;;;;;;;;;;5042789;28;20106;-41
2023/04/05 11:23:15;;;;;;;3.90;2.58;;;;;;;;;;5043039;28;20071;-42
2023/04/05 11:25:58;;;;;;;2.45;2.22;;;;;;;;;;5046530;28;20037;-41
2023/04/05 11:28:44;;;;;;;2.97;2.50;;;;;;;;;;5047133;28;20047;-41
2023/04/05 11:31:15;;;;;;;7.55;2.20;;;;;;;;;;5044843;28;20537;-42
2023/04/05 11:33:43;;;;;;;6.40;2.45;;;;;;;;;;5044043;28;20029;-41
2023/04/05 11:36:09;;;;;;;5.45;2.30;;;;;;;;;;5040981;28;20041;-43
2023/04/05 11:38:35;;;;;;;2.65;2.45;;;;;;;;;;5038966;28;20059;-42
2023/04/05 11:41:16;;;;;;;2.78;2.58;;;;;;;;;;5041144;28;20064;-41
2023/04/05 11:43:42;;;;;;;2.63;2.30;;;;;;;;;;5045272;28;20033;-42
2023/04/05 11:46:07;;;;;;;5.05;2.40;;;;;;;;;;5044104;28;20551;-41
2023/04/05 11:48:33;;;;;;;3.63;2.72;;;;;;;;;;5039720;28;20083;-42
2023/04/05 11:50:59;;;;;;;3.55;2.40;;;;;;;;;;5049164;28;20130;-41
2023/04/05 11:53:24;;;;;;;3.92;2.63;;;;;;;;;;5065688;28;20024;-42
2023/04/05 11:55:51;;;;;;;4.72;2.47;;;;;;;;;;5054723;28;20049;-42
2023/04/05 11:58:22;;;;;;;3.35;2.35;;;;;;;;;;5058265;28;20477;-41
2023/04/05 12:01:02;;;;;;;7.50;2.70;;;;;;;;;;5057360;28;20044;-42
2023/04/05 12:03:28;;;;;;;4.82;2.63;;;;;;;;;;5042019;28;20095;-43
2023/04/05 12:05:56;;;;;;;17.70;3.70;;;;;;;;;;5054714;28;20051;-42
2023/04/05 12:08:22;;;;;;;9.55;2.65;;;;;;;;;;5046482;28;20056;-42
2023/04/05 12:11:00;;;;;;;4.15;2.75;;;;;;;;;;5044508;28;20072;-41
2023/04/05 12:13:31;;;;;;;3.20;2.70;;;;;;;;;;5047924;28;20036;-41
2023/04/05 12:16:01;;;;;;;3.75;2.78;;;;;;;;;;5045963;28;20150;-43
2023/04/05 12:18:29;;;;;;;3.47;2.78;;;;;;;;;;5044946;28;20060;-41
2023/04/05 12:20:54;;;;;;;4.60;2.80;;;;;;;;;;5053386;28;20040;-45
2023/04/05 12:23:21;;;;;;;7.50;2.75;;;;;;;;;;5061477;28;20074;-42
2023/04/05 12:25:47;;;;;;;6.05;2.75;;;;;;;;;;5058970;28;20047;-42
2023/04/05 12:28:13;;;;;;;3.00;2.63;;;;;;;;;;5057227;28;20071;-41
2023/04/05 12:30:58;;;;;;;4.50;3.28;;;;;;;;;;5059724;28;20393;-48
2023/04/05 12:33:31;;;;;;;2.60;2.30;;;;;;;;;;5059217;28;20048;-41
2023/04/05 12:35:57;;;;;;;3.13;2.55;;;;;;;;;;5064593;28;20063;-42
2023/04/05 12:38:28;;;;;;;4.82;2.60;;;;;;;;;;5059818;28;20029;-41
2023/04/05 12:40:56;;;;;;;8.75;2.28;;;;;;;;;;5061253;28;20413;-42
2023/04/05 12:43:21;;;;;;;3.05;2.60;;;;;;;;;;5052846;28;20043;-41
2023/04/05 12:45:49;;;;;;;3.15;2.85;;;;;;;;;;5061591;28;20044;-42
2023/04/05 12:48:21;;;;;;;5.32;2.40;;;;;;;;;;5061586;28;20043;-42
2023/04/05 12:50:48;;;;;;;4.57;2.78;;;;;;;;;;5058141;28;20041;-41
2023/04/05 12:53:21;;;;;;;5.15;2.65;;;;;;;;;;5062079;28;20043;-42
2023/04/05 12:55:54;;;;;;;2.60;2.40;;;;;;;;;;5059161;28;20041;-41
2023/04/05 12:58:21;;;;;;;3.95;2.50;;;;;;;;;;5055765;28;20103;-42
2023/04/05 13:00:46;;;;;;;7.82;2.53;;;;;;;;;;5058542;28;20037;-42
2023/04/05 13:03:20;;;;;;;5.65;2.80;;;;;;;;;;5058667;28;20154;-41
2023/04/05 13:05:47;;;;;;;2.78;2.58;;;;;;;;;;5059027;28;20434;-45
2023/04/05 13:08:13;;;;;;;5.05;2.22;;;;;;;;;;5055412;28;20476;-42
2023/04/05 13:10:39;;;;;;;2.60;2.22;;;;;;;;;;5061178;28;20113;-42
2023/04/05 13:13:04;;;;;;;2.90;2.30;;;;;;;;;;5057126;28;20049;-42
2023/04/05 13:15:30;;;;;;;3.05;2.60;;;;;;;;;;5062748;28;20131;-41
2023/04/05 13:17:56;;;;;;;9.65;2.30;;;;;;;;;;5057879;28;20159;-41
2023/04/05 13:20:21;;;;;;;7.35;2.17;;;;;;;;;;5057304;28;20155;-42
2023/04/05 13:22:47;;;;;;;4.30;2.03;;;;;;;;;;5046652;28;20021;-42
2023/04/05 13:25:13;;;;;;;2.50;2.20;;;;;;;;;;5042421;28;20033;-41
2023/04/05 13:27:39;;;;;;;4.18;2.15;;;;;;;;;;5053563;28;20033;-43
2023/04/05 13:30:05;;;;;;;2.95;2.13;;;;;;;;;;5052462;28;20031;-43
2023/04/05 13:32:32;;;;;;;4.50;2.13;;;;;;;;;;5052778;28;20029;-42
2023/04/05 13:34:57;;;;;;;5.72;2.25;;;;;;;;;;5051636;28;20615;-42
2023/04/05 13:37:23;;;;;;;6.03;2.20;;;;;;;;;;5057130;28;20068;-41
2023/04/05 13:39:49;;;;;;;2.25;2.03;;;;;;;;;;5052160;28;20032;-42
2023/04/05 13:42:15;;;;;;;2.15;1.90;;;;;;;;;;5060837;28;20048;-42
2023/04/05 13:44:40;;;;;;;3.92;2.17;;;;;;;;;;5059762;28;20504;-42
2023/04/05 13:47:06;;;;;;;3.22;2.17;;;;;;;;;;5060864;28;20041;-42
2023/04/05 13:49:31;;;;;;;4.20;1.95;;;;;;;;;;5060033;28;20025;-42
2023/04/05 13:51:57;;;;;;;3.95;2.00;;;;;;;;;;5060433;28;20628;-42
2023/04/05 13:54:22;;;;;;;2.55;1.95;;;;;;;;;;5058875;28;20401;-41
2023/04/05 13:56:48;;;;;;;3.45;2.22;;;;;;;;;;5058615;28;20085;-42
2023/04/05 13:59:15;;;;;;;3.35;2.00;;;;;;;;;;5058407;28;20664;-41
2023/04/05 14:01:41;;;;;;;3.58;2.00;;;;;;;;;;5054861;28;20198;-41
2023/04/05 14:04:07;;;;;;;2.35;2.15;;;;;;;;;;5060619;28;20032;-46
2023/04/05 14:06:33;;;;;;;7.60;2.33;;;;;;;;;;5058568;28;20350;-47
2023/04/05 14:08:58;;;;;;;6.43;2.70;;;;;;;;;;5057558;28;20055;-41
2023/04/05 14:11:24;;;;;;;3.78;2.20;;;;;;;;;;5050048;28;20048;-42
2023/04/05 14:13:50;;;;;;;9.32;1.98;;;;;;;;;;5042844;28;20225;-43
2023/04/05 14:16:15;;;;;;;7.95;2.50;;;;;;;;;;5055814;28;20500;-41
2023/04/05 14:18:41;;;;;;;12.80;1.90;;;;;;;;;;5061878;28;20033;-50
2023/04/05 14:21:07;;;;;;;4.65;2.10;;;;;;;;;;5053916;28;20041;-43
2023/04/05 14:23:32;;;;;;;5.22;2.60;;;;;;;;;;5045526;28;20059;-42
2023/04/05 14:25:57;;;;;;;4.00;2.20;;;;;;;;;;5050096;28;20382;-42
2023/04/05 14:28:23;;;;;;;3.20;2.33;;;;;;;;;;5056913;28;20021;-42
2023/04/05 14:30:49;;;;;;;3.67;2.50;;;;;;;;;;5052199;28;20516;-41
2023/04/05 14:33:15;;;;;;;2.35;1.95;;;;;;;;;;5043396;28;20040;-43
2023/04/05 14:35:41;;;;;;;2.03;1.85;;;;;;;;;;5045562;28;20396;-43
2023/04/05 14:38:06;;;;;;;2.10;1.60;;;;;;;;;;5063460;28;20033;-44
2023/04/05 14:40:32;;;;;;;7.47;2.00;;;;;;;;;;5064848;28;20098;-42
2023/04/05 14:42:57;;;;;;;10.02;1.92;;;;;;;;;;5056888;28;20064;-42
2023/04/05 14:45:25;;;;;;;3.72;1.60;;;;;;;;;;5066206;28;20044;-41
2023/04/05 14:47:51;;;;;;;6.78;2.10;;;;;;;;;;5059500;28;20090;-42